Terminal Aerodrome Forecast
Issued by NWS Cleveland, OH

Home | Current Version | Previous Version | Text Only | Print | Product List | Glossary On
Versions: 1 2 3 4 5 6 7 8 9 10 11 12 13 14 15 16 17 18 19 20
203
FTUS41 KCLE 280543
TAFCAK
TAF
KCAK 280543Z 2806/2906 03006KT P6SM OVC035
      TEMPO 2806/2808 4SM -SHRA BR OVC015
     FM280800 01006KT 5SM -RA BR OVC015
      TEMPO 2808/2810 2SM -RA BR OVC006
     FM281000 01008KT 2SM -RA BR OVC006
     FM281600 01010KT 5SM BR OVC012
     FM282000 35010KT P6SM OVC020
     FM290200 35006KT P6SM BKN025 OVC035=

USA.gov is the U.S. government's official web portal to all federal, state and local government web resources and services.